A- A+ FrançaisEnglishEspañol中国

Services sur Internet Soldes sur Internet Des idées de cadeaux Météo Météo aéro

La météo à : Autours de vous Tarbes-Lourdes-PyrénéesCarcassone-SalvazaNimes-Courbessac Toulouse-Blagnac

La météo aéronautique pour les pilotes, la préparation du vol avec les METAR (METeorological Aerodrome Report, message d'observation des conditions météorologiques pour l'aviation) et Les TAF (Terminal Aerodrome Forecast : message de prévision à court terme des conditions météorologiques pour l'aviation). Et les autres ressources comme les VAC (Visual Approch Chart) et les NOTAM (Notice To Airman) pour préprer les vols.

Aéroport Baker Lake (Canada) / OACI CYBK/ IATA YBK

L'altitude de l'aéroport Baker Lake est de 18 m = 59 ft. Il est situé à proximité de Baker Lake (Canada). La météo générale à 5 jours est disponible pour Baker Lake situé à 3.6 km.

METAR de l'aéroport Baker Lake - CYBK

CYBK 281000Z 36030G37KT 15SM DRSN SCT050 OVC100 M08/M11 A2999 RMK SC3AC5 SLP158

Décodage du METAR de l'aéroport Baker Lake (CA)

METAR émis par CYBK le lundi 28 octobre 2019 à 10:00 heure TU. Attention ce METAR est obsolète car il a été émis il y a 11 heure et 9 minutes.

La visibilité est de 24.1 km = 15 sm.

La température est de -8°C = 18 °F et le point rosée est de -11°C = 12 °F . Ce qui correspond à 79% d'humidité relative.

Le QNH est de 1016 hPa = 30 inHg

Vent de 30 kt = 56 km/h avec des rafales à 37 kt = 69 km/h, orienté à 360°.

Nuages : Nuages épars à 5000 ft = 1520 mètres. Couverture nuageuse soudée à 10000 ft = 3050 mètres.

DRSN

RMK SC3AC5 SLP158

TAF de l'aéroport Baker Lake - CYBK

CYBK 150538Z 1506/1518 36012KT P6SM BKN140 FM151000 36012KT P6SM SCT140 BKN200 BECMG 1516/1518 35008KT RMK NXT FCST BY 151200Z

CYBK 150538Z 1506/1518 36012KT P6SM couverture nuageuse fragmentée à 140 FM151000 36012KT P6SM nuages épars à 140 couverture nuageuse fragmentée à 200 devenant 1516/1518 35008KT remarques NXT trombe ST BY 151200Z

Aéroport à proximité de Baker Lake

Météo générale à 5 jours à Baker Lake (3.6 km)Aéroport Rankin Inlet (257 km)Aéroport Chesterfield Inlet (283 km)Aéroport Whale Cove (287 km)Aéroport Arviat (371 km)Aéroport Gjoa Haven (482 km)Aéroport Repulse Bay (518 km)

Vue aérienne de l'aéroport Baker Lake

NOTAM de l'aéroport Baker Lake

Les NOTAM sont fournis sans aucune garantie de leur actualité. Le pilote est le seul responsable de la vérification de sa validité avant de l'utiliser opérationnellement pour préparer un vol ou l'utiliser lors de sa navigation.

Pas de NOTAM

Sources des données